Time;durP1;ratioP1;P1;durP2;ratioP2;P2;SDS_P1;SDS_P2;PMS_P1;PMS_P2;Temp;Humidity;BMP_temperature;BMP_pressure;BME280_temperature;BME280_humidity;BME280_pressure;Samples;Min_cycle;Max_cycle;Signal;HPM_P1;HPM_P2
2023/07/10 00:03:05;;;;;;;;;;;23.80;67.80;;;22.77;60.89;100018.94;10244495;28;867;-67
2023/07/10 00:08:00;;;;;;;;;;;23.80;67.70;;;22.77;60.84;100016.28;10245215;28;1967;-67
2023/07/10 00:12:56;;;;;;;;;;;23.80;67.70;;;22.77;60.56;100016.28;10244921;28;853;-67
2023/07/10 00:17:51;;;;;;;;;;;23.80;67.70;;;22.76;60.73;100010.09;10244093;28;771;-67
2023/07/10 00:22:46;;;;;;;;;;;23.80;67.60;;;22.76;60.51;100017.22;10243810;28;956;-67
2023/07/10 00:27:42;;;;;;;;;;;23.80;67.60;;;22.75;60.62;100011.03;10244013;28;1960;-67
2023/07/10 00:32:38;;;;;;;;;;;23.80;67.70;;;22.76;60.46;100014.56;10244209;28;1105;-67
2023/07/10 00:37:33;;;;;;;;;;;23.80;67.60;;;22.74;60.85;100014.66;10244650;28;872;-67
2023/07/10 00:42:29;;;;;;;;;;;23.80;67.70;;;22.75;60.42;100015.50;10244337;28;810;-69
2023/07/10 00:47:25;;;;;;;;;;;23.80;67.50;;;22.74;60.59;100021.75;10243685;28;948;-67
2023/07/10 00:52:20;;;;;;;;;;;23.80;67.50;;;22.72;60.57;100016.56;10243502;28;1910;-67
2023/07/10 00:57:15;;;;;;;;;;;23.80;67.50;;;22.73;60.83;100015.59;10244021;28;863;-67
2023/07/10 01:02:11;;;;;;;;;;;23.80;67.60;;;22.71;60.75;100004.19;10243428;28;818;-67
2023/07/10 01:07:06;;;;;;;;;;;23.80;67.50;;;22.70;60.48;100006.97;10244501;28;909;-67
2023/07/10 01:12:03;;;;;;;;;;;23.80;67.50;;;22.71;60.55;100011.31;10243799;28;1910;-67
2023/07/10 01:16:59;;;;;;;;;;;23.80;67.50;;;22.70;60.34;100026.41;10243860;28;948;-67
2023/07/10 01:21:54;;;;;;;;;;;23.80;67.50;;;22.70;60.50;100026.41;10243060;28;767;-67
2023/07/10 01:26:49;;;;;;;;;;;23.70;67.40;;;22.70;60.58;100025.56;10244014;28;825;-67
2023/07/10 01:31:45;;;;;;;;;;;23.70;67.50;;;22.68;60.47;100028.28;10250300;28;1910;-67
2023/07/10 01:36:40;;;;;;;;;;;23.80;67.40;;;22.68;60.34;100036.25;10250174;28;896;-67
2023/07/10 01:41:38;;;;;;;;;;;23.80;67.40;;;22.68;60.22;100030.94;10250039;28;792;-67
2023/07/10 01:46:33;;;;;;;;;;;23.70;67.30;;;22.67;60.34;100031.91;10250440;28;853;-67
2023/07/10 01:51:28;;;;;;;;;;;23.70;67.30;;;22.67;60.60;100028.41;10248924;28;1965;-67
2023/07/10 01:56:24;;;;;;;;;;;23.70;67.30;;;22.68;60.09;100027.44;10250595;28;846;-67
2023/07/10 02:01:19;;;;;;;;;;;23.70;67.30;;;22.67;60.38;100031.06;10249245;28;932;-67
2023/07/10 02:06:15;;;;;;;;;;;23.70;67.30;;;22.66;60.52;100037.31;10249662;28;852;-67
2023/07/10 02:11:10;;;;;;;;;;;23.70;67.30;;;22.65;60.42;100043.56;10249548;28;1971;-67
2023/07/10 02:16:06;;;;;;;;;;;23.70;67.30;;;22.65;60.45;100039.09;10248658;28;936;-67
2023/07/10 02:21:01;;;;;;;;;;;23.70;67.30;;;22.66;60.41;100039.97;10249044;28;880;-67
2023/07/10 02:25:57;;;;;;;;;;;23.70;67.30;;;22.64;60.27;100056.00;10248227;28;806;-68
2023/07/10 02:30:52;;;;;;;;;;;23.60;67.20;;;22.64;60.36;100052.50;10247778;28;1969;-67
2023/07/10 02:35:48;;;;;;;;;;;23.60;67.30;;;22.65;60.33;100056.84;10247891;28;913;-67
2023/07/10 02:40:43;;;;;;;;;;;23.70;67.40;;;22.63;60.47;100064.06;10245873;28;909;-67
2023/07/10 02:45:39;;;;;;;;;;;23.60;67.10;;;22.63;60.08;100050.78;10247466;28;874;-67
2023/07/10 02:50:34;;;;;;;;;;;23.60;67.20;;;22.61;60.60;100045.56;10247270;28;1955;-67
2023/07/10 02:55:30;;;;;;;;;;;23.60;67.10;;;22.61;60.13;100048.22;10247130;28;855;-67
2023/07/10 03:00:25;;;;;;;;;;;23.60;67.10;;;22.61;60.16;100053.53;10246944;28;846;-67
2023/07/10 03:05:23;;;;;;;;;;;23.60;67.00;;;22.61;60.45;100060.63;10246692;28;771;-67
2023/07/10 03:10:18;;;;;;;;;;;23.60;67.10;;;22.59;60.29;100054.56;10246432;28;1965;-67
2023/07/10 03:15:14;;;;;;;;;;;23.60;67.10;;;22.59;60.10;100060.75;10247219;28;810;-67
2023/07/10 03:20:09;;;;;;;;;;;23.60;67.10;;;22.59;60.22;100066.06;10246699;28;797;-67
2023/07/10 03:25:04;;;;;;;;;;;23.60;67.10;;;22.59;60.27;100065.19;10245938;28;837;-67
2023/07/10 03:30:00;;;;;;;;;;;23.60;67.10;;;22.58;60.41;100060.81;10245759;28;1965;-68
2023/07/10 03:34:57;;;;;;;;;;;23.60;67.10;;;22.58;60.24;100063.47;10245526;28;1410;-67
2023/07/10 03:39:52;;;;;;;;;;;23.60;67.20;;;22.57;60.28;100062.63;10245401;28;810;-67
2023/07/10 03:44:48;;;;;;;;;;;23.60;67.20;;;22.57;60.21;100069.75;10245850;28;852;-67
2023/07/10 03:49:43;;;;;;;;;;;23.60;67.30;;;22.56;60.28;100068.88;10245246;28;1910;-67
2023/07/10 03:54:39;;;;;;;;;;;23.50;67.00;;;22.56;60.03;100073.31;10244916;28;799;-67
2023/07/10 03:59:34;;;;;;;;;;;23.60;67.10;;;22.54;60.29;100074.28;10244771;28;820;-64
2023/07/10 04:04:29;;;;;;;;;;;23.60;67.10;;;22.54;60.26;100082.25;10244562;28;937;-65
2023/07/10 04:09:25;;;;;;;;;;;23.50;67.00;;;22.53;60.04;100072.59;10244443;28;1967;-66
2023/07/10 04:14:20;;;;;;;;;;;23.50;67.10;;;22.53;60.20;100061.97;10244403;28;852;-67
2023/07/10 04:19:16;;;;;;;;;;;23.50;67.10;;;22.54;60.04;100068.97;10244278;28;808;-66
2023/07/10 04:24:12;;;;;;;;;;;23.50;67.00;;;22.56;60.23;100073.31;10243444;28;894;-66
2023/07/10 04:29:07;;;;;;;;;;;23.60;67.00;;;22.44;61.79;100067.78;10243909;28;1965;-65
2023/07/10 04:34:02;;;;;;;;;;;23.50;69.10;;;21.88;65.40;100074.47;10243298;28;1415;-70
2023/07/10 04:38:58;;;;;;;;;;;23.40;72.90;;;21.58;66.86;100091.09;10213600;28;1000;-65
2023/07/10 04:43:53;;;;;;;;;;;23.20;73.50;;;21.47;67.08;100096.13;10203621;28;850;-66
2023/07/10 04:48:49;;;;;;;;;;;23.10;74.20;;;21.43;67.86;100095.44;10203969;28;1930;-66
2023/07/10 04:53:45;;;;;;;;;;;23.10;75.10;;;21.21;68.57;100108.94;10203274;28;822;-66
2023/07/10 04:58:40;;;;;;;;;;;22.90;75.80;;;21.26;68.18;100107.84;10203251;28;887;-67
2023/07/10 05:03:35;;;;;;;;;;;22.80;76.20;;;21.20;68.76;100109.03;10206538;28;885;-67
2023/07/10 05:08:31;;;;;;;;;;;22.80;76.00;;;21.03;69.48;100115.16;10212045;28;1902;-67
2023/07/10 05:13:26;;;;;;;;;;;22.70;76.70;;;21.00;69.67;100133.88;10210835;28;908;-66
2023/07/10 05:18:22;;;;;;;;;;;22.70;77.20;;;20.88;69.19;100140.69;10211357;28;917;-65
2023/07/10 05:23:17;;;;;;;;;;;22.60;77.30;;;20.86;70.00;100149.63;10210519;28;887;-67
2023/07/10 05:28:12;;;;;;;;;;;22.50;77.90;;;20.75;70.10;100158.97;10210710;28;1967;-66
2023/07/10 05:33:08;;;;;;;;;;;22.40;78.40;;;20.82;69.56;100164.81;10210247;28;1316;-65
2023/07/10 05:38:03;;;;;;;;;;;22.40;78.60;;;20.67;70.49;100161.13;10209294;28;901;-66
2023/07/10 05:42:59;;;;;;;;;;;22.30;79.10;;;20.72;70.38;100167.06;10210290;28;830;-66
2023/07/10 05:47:54;;;;;;;;;;;22.30;80.00;;;20.72;69.72;100172.38;10209379;28;1911;-66
2023/07/10 05:52:49;;;;;;;;;;;22.30;79.30;;;20.63;70.31;100182.53;10209913;28;798;-66
2023/07/10 05:57:45;;;;;;;;;;;22.20;79.30;;;20.64;70.80;100184.25;10208525;28;886;-66
2023/07/10 06:02:40;;;;;;;;;;;22.20;80.20;;;20.60;70.46;100180.91;10208793;28;949;-66
2023/07/10 06:07:35;;;;;;;;;;;22.20;80.30;;;20.54;71.04;100183.81;10208760;28;990;-66
2023/07/10 06:12:31;;;;;;;;;;;22.20;80.30;;;20.52;71.04;100188.31;10208244;28;1906;-66
2023/07/10 06:17:26;;;;;;;;;;;22.10;80.50;;;20.51;70.93;100189.25;10208262;28;780;-66
2023/07/10 06:22:22;;;;;;;;;;;22.10;80.80;;;20.53;71.14;100195.31;10208202;28;881;-67
2023/07/10 06:27:17;;;;;;;;;;;22.10;81.20;;;20.47;71.78;100203.56;10207425;28;878;-66
2023/07/10 06:32:12;;;;;;;;;;;22.00;81.50;;;20.40;71.64;100218.03;10207895;28;1967;-66
2023/07/10 06:37:08;;;;;;;;;;;22.00;81.40;;;20.30;71.12;100218.47;10207508;28;938;-66
2023/07/10 06:42:03;;;;;;;;;;;22.00;80.00;;;20.30;70.57;100217.56;10207422;28;822;-66
2023/07/10 06:46:59;;;;;;;;;;;21.90;79.50;;;20.33;70.49;100218.31;10220736;28;1103;-66
2023/07/10 06:51:54;;;;;;;;;;;21.90;79.70;;;20.21;70.54;100218.88;10245322;28;1918;-66
2023/07/10 06:56:49;;;;;;;;;;;21.90;79.20;;;20.19;69.42;100218.06;10244832;28;948;-66
2023/07/10 07:01:45;;;;;;;;;;;21.80;77.60;;;20.19;69.77;100227.81;10245674;28;883;-66
2023/07/10 07:06:40;;;;;;;;;;;21.80;78.60;;;20.21;70.19;100218.88;10244579;28;809;-66
2023/07/10 07:11:36;;;;;;;;;;;21.80;79.30;;;20.27;69.86;100225.66;10245078;28;1914;-66
2023/07/10 07:16:31;;;;;;;;;;;21.70;79.80;;;20.38;69.78;100230.47;10246394;28;905;-66
2023/07/10 07:21:26;;;;;;;;;;;21.80;80.30;;;20.64;68.73;100240.72;10246766;28;881;-66
2023/07/10 07:26:22;;;;;;;;;;;21.80;79.20;;;20.55;68.98;100243.81;10244592;28;955;-66
2023/07/10 07:31:17;;;;;;;;;;;21.90;79.20;;;20.70;68.61;100253.69;10245164;28;1906;-67
2023/07/10 07:36:13;;;;;;;;;;;21.90;79.70;;;20.77;68.40;100251.59;10245041;28;791;-67
2023/07/10 07:41:08;;;;;;;;;;;21.90;79.30;;;20.61;69.68;100248.81;10245843;28;858;-67
2023/07/10 07:46:03;;;;;;;;;;;21.90;79.60;;;20.78;68.39;100248.88;10245307;28;928;-67
2023/07/10 07:50:59;;;;;;;;;;;22.00;79.60;;;20.67;69.59;100251.19;10245057;28;1969;-67
2023/07/10 07:55:54;;;;;;;;;;;21.90;79.80;;;20.39;70.21;100253.38;10244887;28;994;-66
2023/07/10 08:00:50;;;;;;;;;;;21.90;79.70;;;20.58;69.26;100248.97;10244233;28;901;-66
2023/07/10 08:05:45;;;;;;;;;;;21.90;79.70;;;20.70;68.89;100255.50;10244641;28;952;-67
2023/07/10 08:10:40;;;;;;;;;;;21.90;79.00;;;20.72;68.71;100256.25;10245277;28;1906;-67
2023/07/10 08:15:36;;;;;;;;;;;21.90;80.10;;;20.72;68.35;100258.91;10244369;28;779;-66
2023/07/10 08:20:31;;;;;;;;;;;22.00;78.60;;;20.66;67.89;100254.75;10244275;28;817;-67
2023/07/10 08:25:27;;;;;;;;;;;22.00;77.60;;;20.77;67.70;100260.41;10244697;28;894;-67
2023/07/10 08:30:22;;;;;;;;;;;21.90;77.10;;;20.79;67.30;100265.63;10226288;28;1945;-67
2023/07/10 08:35:17;;;;;;;;;;;22.00;76.80;;;20.79;67.27;100274.44;10245219;28;1470;-67
2023/07/10 08:40:13;;;;;;;;;;;21.90;76.60;;;20.75;66.40;100267.59;10252517;28;786;-67
2023/07/10 08:45:08;;;;;;;;;;;21.90;75.30;;;20.77;66.54;100267.50;10251919;28;895;-67
2023/07/10 08:50:04;;;;;;;;;;;22.00;75.50;;;20.82;65.76;100260.19;10252052;28;1914;-67
2023/07/10 08:54:59;;;;;;;;;;;22.00;74.30;;;20.82;66.00;100249.59;10251750;28;790;-67
2023/07/10 08:59:54;;;;;;;;;;;22.00;74.90;;;20.79;66.14;100247.94;10251233;28;955;-67
2023/07/10 09:04:50;;;;;;;;;;;22.00;75.50;;;20.72;65.71;100238.59;10251377;28;798;-67
2023/07/10 09:09:45;;;;;;;;;;;21.90;74.30;;;20.70;66.21;100245.75;10251210;28;1918;-70
2023/07/10 09:14:41;;;;;;;;;;;21.90;74.80;;;21.03;65.30;100242.38;10251061;28;953;-69
2023/07/10 09:19:36;;;;;;;;;;;22.00;74.90;;;21.10;65.19;100250.91;10250876;28;872;-70
2023/07/10 09:24:32;;;;;;;;;;;22.00;74.70;;;21.13;65.13;100248.97;10251912;28;826;-70
2023/07/10 09:29:27;;;;;;;;;;;22.00;74.30;;;21.15;64.91;100252.41;10249861;28;2261;-69
2023/07/10 09:34:22;;;;;;;;;;;22.10;74.10;;;21.16;65.05;100243.50;10250009;28;1141;-70
2023/07/10 09:39:18;;;;;;;;;;;22.10;74.30;;;21.25;64.84;100250.16;10250729;28;890;-70
2023/07/10 09:44:13;;;;;;;;;;;22.10;74.70;;;21.23;65.23;100259.97;10249957;28;903;-67
2023/07/10 09:49:08;;;;;;;;;;;22.10;74.60;;;21.30;64.89;100244.59;10249025;28;1981;-67
2023/07/10 09:54:06;;;;;;;;;;;22.20;74.90;;;21.16;64.15;100247.94;10250105;28;868;-66
2023/07/10 09:59:01;;;;;;;;;;;22.10;73.00;;;21.26;65.11;100251.00;10249428;28;763;-67
2023/07/10 10:03:57;;;;;;;;;;;22.20;74.80;;;21.30;64.40;100247.25;10248642;28;916;-67
2023/07/10 10:08:52;;;;;;;;;;;22.20;73.80;;;21.29;65.05;100245.56;10250039;28;1914;-67
2023/07/10 10:13:48;;;;;;;;;;;22.20;74.50;;;21.16;65.85;100251.44;10248608;28;923;-67
2023/07/10 10:18:43;;;;;;;;;;;22.10;75.60;;;21.32;65.93;100250.69;10249148;28;865;-67
2023/07/10 10:23:38;;;;;;;;;;;22.20;76.50;;;21.50;65.20;100244.50;10249231;28;806;-67
2023/07/10 10:28:34;;;;;;;;;;;22.20;76.00;;;21.52;62.44;100245.28;10247666;28;1914;-66
2023/07/10 10:33:29;;;;;;;;;;;22.30;72.60;;;21.52;63.29;100247.09;10247430;28;1552;-67
2023/07/10 10:38:25;;;;;;;;;;;22.30;72.50;;;21.56;62.42;100248.63;10247815;28;887;-67
2023/07/10 10:43:20;;;;;;;;;;;22.30;71.90;;;21.61;62.78;100252.78;10247646;28;814;-67
2023/07/10 10:48:15;;;;;;;;;;;22.30;72.30;;;21.63;61.53;100253.53;10247252;28;1973;-67
2023/07/10 10:53:11;;;;;;;;;;;22.30;70.80;;;21.67;61.67;100255.13;10247345;28;864;-67
2023/07/10 10:58:06;;;;;;;;;;;22.40;70.40;;;21.69;61.55;100254.16;10247092;28;828;-67
2023/07/10 11:03:02;;;;;;;;;;;22.40;70.00;;;21.72;61.68;100256.66;10245832;28;863;-67
2023/07/10 11:07:57;;;;;;;;;;;22.40;70.00;;;21.74;61.29;100258.28;10246616;28;1910;-67
2023/07/10 11:12:52;;;;;;;;;;;22.40;70.00;;;21.67;61.52;100257.78;10246516;28;883;-67
2023/07/10 11:17:48;;;;;;;;;;;22.40;69.70;;;21.80;59.87;100241.22;10247707;28;857;-66
2023/07/10 11:22:43;;;;;;;;;;;22.50;67.90;;;21.66;59.68;100237.47;10228657;28;1165;-66
2023/07/10 11:27:39;;;;;;;;;;;22.40;67.70;;;21.69;58.65;100227.63;10245534;28;940;-66
2023/07/10 11:32:34;;;;;;;;;;;22.40;65.60;;;21.88;58.14;100233.72;10245363;28;1973;-66
2023/07/10 11:37:29;;;;;;;;;;;22.50;65.80;;;21.93;56.25;100226.38;10245507;28;959;-66
2023/07/10 11:42:25;;;;;;;;;;;22.60;63.30;;;22.03;57.22;100229.38;10245446;28;969;-66
2023/07/10 11:47:21;;;;;;;;;;;22.60;64.20;;;21.95;57.79;100227.13;10245218;28;864;-67
2023/07/10 11:52:16;;;;;;;;;;;22.60;64.30;;;21.77;58.83;100234.28;10245614;28;1988;-67
2023/07/10 11:57:11;;;;;;;;;;;22.50;65.30;;;21.74;59.12;100230.91;10245304;28;916;-67
2023/07/10 12:02:07;;;;;;;;;;;22.50;66.10;;;21.74;59.39;100220.28;10244282;28;860;-67
2023/07/10 12:07:02;;;;;;;;;;;22.50;66.70;;;21.74;59.60;100231.75;10244721;28;911;-67
2023/07/10 12:11:57;;;;;;;;;;;22.50;67.30;;;21.74;59.98;100239.72;10244968;28;1965;-66
2023/07/10 12:16:53;;;;;;;;;;;22.50;67.80;;;21.77;60.46;100236.94;10243840;28;894;-66
2023/07/10 12:21:48;;;;;;;;;;;22.50;68.20;;;21.78;60.67;100246.59;10244243;28;858;-67
2023/07/10 12:26:44;;;;;;;;;;;22.50;68.50;;;21.79;60.72;100231.53;10244875;28;845;-66
2023/07/10 12:31:39;;;;;;;;;;;22.50;68.90;;;21.80;60.69;100235.91;10243933;28;1906;-67
2023/07/10 12:36:36;;;;;;;;;;;22.50;69.30;;;21.80;60.91;100234.13;10243718;28;1042;-67
2023/07/10 12:41:31;;;;;;;;;;;22.50;69.40;;;21.81;61.12;100222.53;10244422;28;887;-71
2023/07/10 12:46:28;;;;;;;;;;;22.50;69.70;;;21.80;61.10;100222.66;10244391;28;798;-71
2023/07/10 12:51:23;;;;;;;;;;;22.50;69.60;;;21.79;61.09;100223.56;10243654;28;1914;-69
2023/07/10 12:56:18;;;;;;;;;;;22.50;69.70;;;21.79;61.04;100224.41;10244179;28;884;-69
2023/07/10 13:01:14;;;;;;;;;;;22.50;69.80;;;21.77;61.04;100221.00;10244880;28;838;-69
2023/07/10 13:06:09;;;;;;;;;;;22.50;69.70;;;21.76;60.87;100224.59;10243773;28;771;-69
2023/07/10 13:11:04;;;;;;;;;;;22.50;69.50;;;21.78;61.09;100227.16;10243903;28;1914;-69
2023/07/10 13:16:00;;;;;;;;;;;22.50;69.40;;;21.77;60.98;100226.31;10243289;28;873;-69
2023/07/10 13:20:55;;;;;;;;;;;22.50;69.40;;;21.77;61.06;100220.13;10243157;28;767;-69
2023/07/10 13:25:52;;;;;;;;;;;22.50;69.40;;;21.77;60.98;100217.47;10248979;28;812;-69
2023/07/10 13:30:47;;;;;;;;;;;22.50;69.40;;;21.77;60.93;100217.47;10250017;28;1918;-69
2023/07/10 13:35:42;;;;;;;;;;;22.50;69.40;;;21.76;60.92;100211.31;10250587;28;866;-69
2023/07/10 13:40:38;;;;;;;;;;;22.50;69.40;;;21.77;61.08;100205.09;10250044;28;830;-69
2023/07/10 13:45:33;;;;;;;;;;;22.50;69.40;;;21.77;61.05;100201.56;10251238;28;861;-69
2023/07/10 13:50:29;;;;;;;;;;;22.50;69.40;;;21.77;61.11;100199.78;10249708;28;1918;-69
2023/07/10 13:55:24;;;;;;;;;;;22.50;69.40;;;21.78;60.94;100201.47;10249784;28;795;-69
2023/07/10 14:00:19;;;;;;;;;;;22.50;69.40;;;21.79;60.91;100195.22;10232257;28;861;-69
2023/07/10 14:05:16;;;;;;;;;;;22.50;69.40;;;21.79;60.97;100203.19;10249788;28;892;-69
2023/07/10 14:10:12;;;;;;;;;;;22.50;69.40;;;21.79;61.09;100191.72;10249645;28;1910;-69
2023/07/10 14:15:07;;;;;;;;;;;22.50;69.30;;;21.80;61.07;100189.00;10249423;28;926;-69
2023/07/10 14:20:04;;;;;;;;;;;22.50;69.20;;;21.80;61.05;100198.75;10248093;28;912;-69
2023/07/10 14:25:00;;;;;;;;;;;22.50;69.10;;;21.80;61.08;100199.63;10248462;28;806;-70
2023/07/10 14:29:58;;;;;;;;;;;22.50;69.10;;;21.83;60.86;100187.97;10248242;28;1918;-71
2023/07/10 14:34:53;;;;;;;;;;;22.50;69.00;;;21.83;61.05;100204.75;10247099;28;1224;-69
2023/07/10 14:39:49;;;;;;;;;;;22.50;68.90;;;21.84;60.77;100187.03;10246964;28;1097;-68
2023/07/10 14:44:44;;;;;;;;;;;22.60;69.10;;;21.85;60.97;100189.63;10245392;28;988;-70
2023/07/10 14:49:40;;;;;;;;;;;22.50;69.10;;;21.86;60.86;100182.50;10245418;28;1914;-68
2023/07/10 14:54:35;;;;;;;;;;;22.60;69.10;;;21.89;60.79;100174.38;10245832;28;943;-69
2023/07/10 14:59:30;;;;;;;;;;;22.60;69.70;;;21.91;60.88;100182.25;10245867;28;859;-67
2023/07/10 15:04:26;;;;;;;;;;;22.60;70.50;;;21.94;61.44;100190.91;10245494;28;1035;-69
2023/07/10 15:09:21;;;;;;;;;;;22.60;71.00;;;21.95;61.30;100181.16;10244234;28;1961;-69
2023/07/10 15:14:17;;;;;;;;;;;22.60;70.80;;;21.95;61.12;100165.22;10227114;28;734;-69
2023/07/10 15:19:12;;;;;;;;;;;22.70;70.90;;;21.96;60.96;100166.94;10244255;28;874;-68
2023/07/10 15:24:07;;;;;;;;;;;22.60;71.00;;;21.97;60.89;100166.84;10243916;28;893;-69
2023/07/10 15:29:03;;;;;;;;;;;22.60;70.80;;;22.00;60.75;100165.81;10244003;28;1969;-65
2023/07/10 15:33:58;;;;;;;;;;;22.70;70.80;;;22.04;60.95;100162.09;10244313;28;1154;-66
2023/07/10 15:38:54;;;;;;;;;;;22.70;70.80;;;22.02;61.24;100148.88;10243394;28;822;-70
2023/07/10 15:43:49;;;;;;;;;;;22.70;70.50;;;22.01;61.08;100149.84;10243699;28;739;-69
2023/07/10 15:48:44;;;;;;;;;;;22.70;70.40;;;22.02;61.01;100148.88;10241968;28;1918;-69
2023/07/10 15:53:40;;;;;;;;;;;22.70;70.20;;;22.02;60.94;100135.59;10244011;28;857;-69
2023/07/10 15:58:36;;;;;;;;;;;22.70;69.80;;;22.02;60.90;100140.91;10242994;28;814;-70
2023/07/10 16:03:31;;;;;;;;;;;22.70;69.70;;;22.04;60.84;100143.50;10244573;28;864;-72
2023/07/10 16:08:27;;;;;;;;;;;22.70;69.80;;;22.04;60.59;100144.34;10245012;28;1901;-71
2023/07/10 16:13:22;;;;;;;;;;;22.70;69.70;;;22.04;60.70;100140.84;10244579;28;818;-71
2023/07/10 16:18:17;;;;;;;;;;;22.70;69.70;;;22.05;60.55;100140.75;10245055;28;852;-71
2023/07/10 16:23:13;;;;;;;;;;;22.70;69.50;;;22.05;60.70;100135.44;10245000;28;809;-71
2023/07/10 16:28:08;;;;;;;;;;;22.70;69.40;;;22.05;60.61;100134.59;10244147;28;1906;-71
2023/07/10 16:33:04;;;;;;;;;;;22.70;69.30;;;22.06;60.69;100128.31;10244285;28;1640;-69
2023/07/10 16:37:59;;;;;;;;;;;22.70;69.30;;;22.06;60.56;100117.69;10244631;28;893;-71
2023/07/10 16:42:55;;;;;;;;;;;22.70;69.20;;;22.06;60.43;100118.59;10244677;28;794;-71
2023/07/10 16:47:50;;;;;;;;;;;22.70;69.10;;;22.07;60.53;100112.31;10244186;28;982;-71
2023/07/10 16:52:46;;;;;;;;;;;22.80;69.20;;;22.07;60.51;100111.47;10243643;28;1907;-71
2023/07/10 16:57:41;;;;;;;;;;;22.80;69.20;;;22.07;60.29;100109.66;10243895;28;742;-71
2023/07/10 17:02:36;;;;;;;;;;;22.80;69.90;;;22.08;60.45;100102.56;10252141;28;852;-71
2023/07/10 17:07:32;;;;;;;;;;;22.80;68.90;;;22.08;60.20;100092.78;10251355;28;961;-71
2023/07/10 17:12:27;;;;;;;;;;;22.80;68.90;;;22.09;60.42;100083.91;10251311;28;1961;-67
2023/07/10 17:17:25;;;;;;;;;;;22.80;68.90;;;22.10;60.45;100085.59;10251699;28;873;-70
2023/07/10 17:22:21;;;;;;;;;;;22.80;68.80;;;22.10;60.21;100088.25;10250756;28;812;-70
2023/07/10 17:27:16;;;;;;;;;;;22.80;68.80;;;22.12;60.19;100079.38;10250673;28;792;-70
2023/07/10 17:32:12;;;;;;;;;;;22.80;68.70;;;22.12;60.26;100074.91;10250749;28;1949;-70
2023/07/10 17:37:07;;;;;;;;;;;22.80;68.70;;;22.14;60.16;100080.09;10251015;28;889;-70
2023/07/10 17:42:03;;;;;;;;;;;22.80;68.70;;;22.13;60.15;100073.09;10250175;28;778;-70
2023/07/10 17:46:58;;;;;;;;;;;22.80;68.60;;;22.13;60.32;100073.94;10250063;28;787;-70
2023/07/10 17:51:54;;;;;;;;;;;22.90;68.70;;;22.13;60.08;100073.94;10249735;28;1963;-70
2023/07/10 17:56:49;;;;;;;;;;;22.80;68.50;;;22.15;60.23;100068.56;10249645;28;912;-70
2023/07/10 18:01:46;;;;;;;;;;;22.80;68.40;;;22.15;60.16;100071.22;10249548;28;1548;-70
2023/07/10 18:06:41;;;;;;;;;;;22.80;68.40;;;22.15;60.03;100069.41;10250403;28;937;-70
2023/07/10 18:11:36;;;;;;;;;;;22.80;68.40;;;22.16;60.01;100078.22;10248581;28;1965;-69
2023/07/10 18:16:32;;;;;;;;;;;22.90;68.60;;;22.17;60.22;100082.63;10248849;28;957;-70
2023/07/10 18:21:28;;;;;;;;;;;22.90;68.50;;;22.17;60.10;100074.66;10248707;28;883;-72
2023/07/10 18:26:25;;;;;;;;;;;22.90;68.40;;;22.18;59.94;100081.66;10249299;28;857;-71
2023/07/10 18:31:24;;;;;;;;;;;22.90;68.40;;;22.18;60.14;100077.19;10248733;28;1961;-65
2023/07/10 18:36:19;;;;;;;;;;;22.90;68.40;;;22.17;60.22;100078.16;10247602;28;976;-65
2023/07/10 18:41:15;;;;;;;;;;;22.90;68.50;;;22.16;60.40;100079.09;10247990;28;892;-65
2023/07/10 18:46:10;;;;;;;;;;;22.90;68.80;;;22.17;60.23;100083.47;10248360;28;882;-65
2023/07/10 18:51:05;;;;;;;;;;;22.90;68.70;;;22.17;60.05;100078.16;10247461;28;1910;-65
2023/07/10 18:56:01;;;;;;;;;;;22.90;68.40;;;22.17;60.19;100086.13;10247373;28;853;-65
2023/07/10 19:00:56;;;;;;;;;;;22.90;68.60;;;22.16;59.93;100084.38;10247185;28;775;-65
2023/07/10 19:05:52;;;;;;;;;;;22.90;68.40;;;22.16;60.05;100084.38;10247579;28;827;-65
2023/07/10 19:10:47;;;;;;;;;;;22.90;68.20;;;22.13;59.80;100075.75;10246754;28;1906;-65
2023/07/10 19:15:42;;;;;;;;;;;22.90;67.80;;;22.12;59.59;100077.56;10246640;28;822;-65
2023/07/10 19:20:38;;;;;;;;;;;22.90;67.50;;;22.12;59.47;100084.69;10245564;28;775;-65
2023/07/10 19:25:33;;;;;;;;;;;22.90;67.20;;;22.10;59.37;100090.06;10246773;28;803;-65
2023/07/10 19:30:28;;;;;;;;;;;22.90;66.60;;;22.08;58.92;100076.84;10246206;28;1965;-65
2023/07/10 19:35:24;;;;;;;;;;;22.90;66.60;;;22.12;59.30;100080.22;10245745;28;856;-67
2023/07/10 19:40:19;;;;;;;;;;;22.90;66.40;;;22.11;59.36;100075.81;10245116;28;885;-67
2023/07/10 19:45:15;;;;;;;;;;;22.90;66.90;;;22.12;59.52;100076.72;10246183;28;853;-67
2023/07/10 19:50:10;;;;;;;;;;;22.90;66.90;;;22.08;58.67;100076.84;10245228;28;1965;-67
2023/07/10 19:55:06;;;;;;;;;;;22.90;66.60;;;22.01;58.09;100075.50;10245258;28;790;-69
2023/07/10 20:00:01;;;;;;;;;;;22.80;63.30;;;21.72;56.90;100068.28;10245848;28;873;-67
2023/07/10 20:04:56;;;;;;;;;;;22.70;60.80;;;21.38;57.29;100063.00;10244857;28;871;-67
2023/07/10 20:09:52;;;;;;;;;;;22.60;61.20;;;21.32;59.06;100076.53;10244657;28;1968;-67
2023/07/10 20:14:48;;;;;;;;;;;22.60;64.30;;;21.37;59.06;100065.69;10245227;28;776;-67
2023/07/10 20:19:43;;;;;;;;;;;22.40;64.60;;;21.37;59.19;100063.06;10244967;28;847;-67
2023/07/10 20:24:38;;;;;;;;;;;22.30;65.00;;;21.38;59.01;100054.22;10244387;28;763;-67
2023/07/10 20:29:34;;;;;;;;;;;22.30;65.20;;;21.38;58.70;100062.16;10245155;28;1910;-67
2023/07/10 20:34:29;;;;;;;;;;;22.30;64.60;;;21.33;58.62;100049.13;10243110;28;1288;-68
2023/07/10 20:39:25;;;;;;;;;;;22.30;63.60;;;21.32;59.16;100050.03;10242156;28;1103;-68
2023/07/10 20:44:20;;;;;;;;;;;22.20;65.30;;;21.19;58.85;100060.44;10241541;28;795;-67
2023/07/10 20:49:16;;;;;;;;;;;22.10;64.40;;;21.13;59.11;100051.94;10241955;28;1906;-67
2023/07/10 20:54:11;;;;;;;;;;;22.00;65.00;;;20.99;59.36;100048.22;10241510;28;870;-67
2023/07/10 20:59:07;;;;;;;;;;;22.00;65.20;;;20.97;59.68;100050.09;10242546;28;1690;-66
2023/07/10 21:04:02;;;;;;;;;;;22.00;65.50;;;20.94;59.48;100052.06;10241905;28;876;-66
2023/07/10 21:08:58;;;;;;;;;;;21.90;65.60;;;20.86;59.59;100049.81;10241823;28;1906;-66
2023/07/10 21:13:54;;;;;;;;;;;21.80;65.60;;;20.82;59.88;100045.59;10241858;28;811;-67
2023/07/10 21:18:50;;;;;;;;;;;21.80;66.60;;;20.79;59.94;100041.28;10240957;28;1024;-66
2023/07/10 21:23:45;;;;;;;;;;;21.80;66.50;;;20.72;60.09;100042.56;10241627;28;843;-66
2023/07/10 21:28:41;;;;;;;;;;;21.70;66.40;;;20.68;60.00;100038.34;10241530;28;1962;-66
2023/07/10 21:33:36;;;;;;;;;;;21.60;65.90;;;20.67;59.72;100033.09;10241499;28;1365;-67
2023/07/10 21:38:31;;;;;;;;;;;21.60;65.70;;;20.66;59.46;100032.25;10240759;28;868;-66
2023/07/10 21:43:27;;;;;;;;;;;21.70;65.20;;;20.52;59.93;100027.63;10240695;28;794;-67
2023/07/10 21:48:22;;;;;;;;;;;21.60;65.90;;;20.49;59.86;100014.56;10248240;28;1910;-66
2023/07/10 21:53:19;;;;;;;;;;;21.50;65.60;;;20.50;59.92;100013.59;10247628;28;813;-67
2023/07/10 21:58:15;;;;;;;;;;;21.50;65.50;;;20.47;59.40;100013.78;10248066;28;915;-66
2023/07/10 22:03:10;;;;;;;;;;;21.50;64.50;;;20.45;59.46;100009.47;10247327;28;777;-66
2023/07/10 22:08:06;;;;;;;;;;;21.50;64.80;;;20.37;59.38;100007.22;10247771;28;961;-67
2023/07/10 22:13:01;;;;;;;;;;;21.40;64.50;;;20.27;59.56;100005.97;10246663;28;1910;-67
2023/07/10 22:17:56;;;;;;;;;;;21.40;64.30;;;20.33;59.25;100003.00;10246681;28;924;-67
2023/07/10 22:22:52;;;;;;;;;;;21.30;64.20;;;20.27;59.39;99998.00;10246037;28;904;-67
2023/07/10 22:27:47;;;;;;;;;;;21.40;64.50;;;20.29;59.29;100004.09;10246368;28;893;-67
2023/07/10 22:32:43;;;;;;;;;;;21.40;64.00;;;20.33;58.74;99995.06;10245754;28;1971;-66